首页
METAR-TAF:

METAR-TAF

机场 :

墨西哥城贝尼托·胡亚雷斯国际机场

墨西哥城, 墨西哥

纬度: 19-26N, 经度: 099-06W, 海拔: 2238米

当前天气观测

该预报发布于44分钟前的20:44 UTC
风速17节,风向东转东南
温度 23°C
湿度 29%
气压 1024 hPa
能見度: 16.1公里
散云层高于2000英尺
散云层高于8000英尺

METAR: MMMX 222044Z 11017KT 10SM SCT020 SCT080 23/04 A3024 NOSIG RMK SLP071 57025 951 8/130 ACSL CI MDT CU NE

时间: 16:28 (21:28 UTC)

预报

该预报发布于4小时和42分钟前的16:46 UTC
预报有效从22日的 18点(UTC)到 23日的 24点(UTC)
风速5节,风向东转东南
能見度: 10公里
散云层高于2000英尺
从 22日的 2100点(UTC)
风速12节,风向东南
能見度: 10公里
多云层高于2000英尺
多云层高于8000英尺
短暂存在
从 22日的 22点(UTC)到 23日的 02点(UTC)
能見度: 9.7公里
小雨
从 23日的 0300点(UTC)
风速节,风向
能見度: 10公里
散云层高于2000英尺
多云层高于8000英尺
从 23日的 1200点(UTC)
风速5节,风向东转东南
能見度: 8.0公里
多云层高于2000英尺
从 23日的 1600点(UTC)
风速8节,风向东转东南
能見度: 9.7公里
散云层高于2000英尺
从 23日的 2100点(UTC)
风速12节,风向东南
能見度: 10公里
多云层高于2500英尺

TAF: MMMX 221646Z 2218/2324 12005KT P6SM SCT020 TX22/2222Z TN14/2313Z FM222100 14012KT P6SM BKN020 BKN080 TEMPO 2222/2302 6SM -RA FM230300 00000KT P6SM SCT020 BKN080 FM231200 12005KT 5SM HZ BKN020 FM231600 12008KT 6SM HZ SCT020 FM232100 14012KT P6SM BKN025

超过4000个机场的气象观测和天气预报(METAR&TAF报告)。

可查询的气象台以黄色和红色小点在地图上表示。

将鼠标移到小点上方,可查看气象台名称。

然后点击查看天气观测和预报。

如需切换地图:点击带黑十字的绿色按钮放大地图;点击带横线的绿色按钮缩小地图;或者点击绿色箭头查看邻近地区的地图。


METAR-TAF: